createdAt,value
2022-11-07T01:49:15.692Z,11.80
2022-11-07T02:51:51.396Z,11.60
2022-11-07T02:56:46.413Z,12.00
2022-11-07T03:01:41.540Z,11.50
2022-11-07T03:04:09.205Z,11.60
2022-11-07T03:06:36.673Z,11.60
2022-11-07T03:09:04.398Z,11.50
2022-11-07T03:11:31.678Z,11.50
2022-11-07T03:13:58.985Z,11.40
2022-11-07T03:21:21.732Z,10.90
2022-11-07T03:28:47.250Z,10.80
2022-11-07T03:31:14.724Z,10.90
2022-11-07T03:33:42.113Z,11.10
2022-11-07T03:36:09.951Z,11.00
2022-11-07T03:38:37.289Z,11.00
2022-11-07T03:41:04.688Z,11.00
2022-11-07T03:43:32.058Z,11.00
2022-11-07T03:45:59.519Z,10.90
2022-11-07T03:48:26.872Z,10.90
2022-11-07T03:50:54.272Z,10.80
2022-11-07T03:53:25.397Z,10.70
2022-11-07T03:55:55.615Z,10.50
2022-11-07T03:58:23.989Z,10.60
2022-11-07T04:00:51.863Z,10.90
2022-11-07T04:03:19.227Z,11.00
2022-11-07T04:05:46.548Z,10.70
2022-11-07T04:08:13.988Z,10.60
2022-11-07T04:10:41.242Z,10.60
2022-11-07T04:13:28.338Z,10.60
2022-11-07T04:16:16.406Z,10.50
2022-11-07T04:18:45.173Z,10.40
2022-11-07T04:21:12.618Z,10.40
2022-11-07T04:23:39.992Z,10.60
2022-11-07T04:26:25.804Z,10.60
2022-11-07T04:28:53.053Z,10.50
2022-11-07T04:31:20.500Z,10.50
2022-11-07T04:33:48.248Z,10.60
2022-11-07T04:36:15.703Z,10.50
2022-11-07T04:38:43.086Z,10.40
2022-11-07T04:41:23.392Z,10.50
2022-11-07T04:43:51.495Z,10.40
2022-11-07T04:46:18.953Z,10.60
2022-11-07T04:48:46.260Z,10.30
2022-11-07T04:51:22.208Z,10.30
2022-11-07T04:53:49.524Z,10.40
2022-11-07T04:56:16.861Z,10.40
2022-11-07T04:58:44.187Z,10.40
2022-11-07T05:01:11.628Z,10.30
2022-11-07T05:03:41.793Z,10.40
2022-11-07T05:06:14.144Z,10.30
2022-11-07T05:08:41.522Z,10.30
2022-11-07T05:11:08.844Z,10.20
2022-11-07T05:13:36.143Z,10.00
2022-11-07T05:16:03.598Z,9.90
2022-11-07T05:18:30.987Z,10.00
2022-11-07T05:20:58.338Z,10.10
2022-11-07T05:23:27.836Z,10.10
2022-11-07T05:25:55.442Z,10.00
2022-11-07T05:28:38.182Z,10.10
2022-11-07T05:31:07.369Z,9.80
2022-11-07T05:36:16.619Z,10.20
2022-11-07T05:38:46.279Z,10.20
2022-11-07T05:41:15.108Z,10.00
2022-11-07T05:43:42.744Z,10.00
2022-11-07T05:46:10.985Z,9.80
2022-11-07T05:48:38.555Z,9.80
2022-11-07T05:51:08.520Z,9.70
2022-11-07T05:53:36.531Z,10.00
2022-11-07T05:56:04.159Z,10.00
2022-11-07T05:58:31.603Z,9.90
2022-11-07T06:01:06.536Z,9.90
2022-11-07T06:03:34.310Z,9.90
2022-11-07T06:06:01.686Z,10.00
2022-11-07T06:08:29.057Z,9.90
2022-11-07T06:10:56.556Z,10.30
2022-11-07T06:13:23.924Z,9.80
2022-11-07T06:15:51.211Z,9.80
2022-11-07T06:18:20.870Z,9.90
2022-11-07T06:20:48.256Z,10.00
2022-11-07T06:23:16.577Z,9.90
2022-11-07T06:25:44.130Z,10.10
2022-11-07T06:28:12.488Z,10.10
2022-11-07T06:30:40.701Z,9.90
2022-11-07T06:33:11.598Z,9.90
2022-11-07T06:35:39.170Z,10.00
2022-11-07T06:38:12.091Z,9.90
2022-11-07T06:40:41.285Z,10.00
2022-11-07T06:45:40.713Z,9.80
2022-11-07T06:50:36.097Z,9.70
2022-11-07T06:53:06.584Z,9.70
2022-11-07T06:55:35.628Z,10.10
2022-11-07T06:58:04.201Z,10.20
2022-11-07T07:05:28.145Z,11.50
2022-11-07T07:07:56.086Z,11.50
2022-11-07T07:37:35.586Z,16.90
2022-11-07T07:40:02.996Z,16.90
2022-11-07T07:42:30.334Z,17.20
2022-11-07T07:44:59.185Z,17.40
2022-11-07T07:47:26.551Z,17.70
2022-11-07T07:52:21.730Z,18.00
2022-11-07T07:54:49.120Z,18.20
2022-11-07T07:57:16.556Z,18.40
2022-11-07T07:59:43.878Z,18.40
2022-11-07T08:02:12.672Z,18.30
2022-11-07T08:04:43.700Z,18.70
2022-11-07T08:07:11.203Z,19.30
2022-11-07T08:09:38.613Z,18.70
2022-11-07T08:12:08.803Z,18.80
2022-11-07T08:14:36.240Z,18.90
2022-11-07T08:17:03.974Z,18.90
2022-11-07T08:19:31.458Z,18.90
2022-11-07T08:21:58.793Z,18.90
2022-11-07T08:24:26.133Z,18.80
2022-11-07T08:26:53.522Z,18.70
2022-11-07T08:29:21.021Z,19.00
2022-11-07T08:31:50.723Z,18.90
2022-11-07T08:34:18.615Z,19.00
2022-11-07T08:36:45.912Z,18.70
2022-11-07T08:39:13.270Z,18.20
2022-11-07T08:41:40.653Z,17.60
2022-11-07T08:44:09.699Z,17.20
2022-11-07T08:46:37.142Z,17.00
2022-11-07T08:49:04.500Z,16.80
2022-11-07T08:51:31.810Z,17.00
2022-11-07T08:53:59.635Z,17.10
2022-11-07T08:56:27.099Z,17.10
2022-11-07T08:58:54.422Z,17.30
2022-11-07T09:01:22.001Z,17.10
2022-11-07T09:03:56.536Z,17.40
2022-11-07T09:06:25.570Z,17.50
2022-11-07T09:08:52.980Z,17.80
2022-11-07T09:11:21.939Z,17.90
2022-11-07T09:13:49.281Z,18.20
2022-11-07T09:16:17.503Z,18.40
2022-11-07T09:18:47.042Z,18.50
2022-11-07T09:21:20.711Z,18.80
2022-11-07T09:23:50.672Z,19.40
2022-11-07T09:26:18.067Z,20.40
2022-11-07T09:28:49.984Z,21.40
2022-11-07T09:31:19.639Z,22.40
2022-11-07T09:33:46.957Z,23.10
2022-11-07T09:36:14.910Z,22.80
2022-11-07T09:38:42.221Z,22.90
2022-11-07T09:41:18.515Z,23.10
2022-11-07T09:44:20.700Z,23.30
2022-11-07T09:47:05.933Z,23.10
2022-11-07T09:49:49.593Z,23.10
2022-11-07T09:52:19.805Z,23.00
2022-11-07T09:54:53.602Z,23.30
2022-11-07T09:57:21.189Z,23.40
2022-11-07T09:59:55.787Z,23.70
2022-11-07T10:02:30.742Z,23.60
2022-11-07T10:05:01.057Z,23.20
2022-11-07T10:07:46.183Z,23.50
2022-11-07T10:10:27.169Z,23.70
2022-11-07T10:13:11.451Z,23.70
2022-11-07T10:15:50.999Z,23.80
2022-11-07T10:18:24.966Z,23.40
2022-11-07T10:21:35.874Z,23.50
2022-11-07T10:23:57.955Z,23.80
2022-11-07T10:26:28.310Z,23.20
2022-11-07T10:28:59.318Z,22.30
2022-11-07T10:31:53.833Z,21.70
2022-11-07T10:34:36.589Z,21.30
2022-11-07T10:37:04.842Z,20.90
2022-11-07T10:39:32.374Z,21.00
2022-11-07T10:42:07.092Z,20.80
2022-11-07T10:44:35.491Z,20.90
2022-11-07T10:47:03.598Z,21.30
2022-11-07T10:49:32.575Z,21.60
2022-11-07T10:52:19.225Z,21.60
2022-11-07T10:54:47.080Z,21.30
2022-11-07T10:57:20.118Z,21.50
2022-11-07T10:59:53.508Z,21.10
2022-11-07T11:02:25.658Z,21.90
2022-11-07T11:05:02.568Z,21.70
2022-11-07T11:07:38.673Z,21.40
2022-11-07T11:10:27.705Z,22.10
2022-11-07T11:12:55.285Z,21.80
2022-11-07T11:15:24.706Z,22.30
2022-11-07T11:18:19.008Z,22.00
2022-11-07T11:21:02.933Z,22.50
2022-11-07T11:23:32.672Z,22.40
2022-11-07T11:26:27.175Z,22.40
2022-11-07T11:29:03.602Z,22.20
2022-11-07T11:31:45.793Z,22.10
2022-11-07T11:34:19.752Z,22.10
2022-11-07T11:37:15.829Z,22.80
2022-11-07T11:40:07.489Z,22.70
2022-11-07T11:42:41.080Z,22.80
2022-11-07T11:45:38.097Z,22.90
2022-11-07T11:48:25.611Z,22.60
2022-11-07T11:51:19.494Z,22.30
2022-11-07T11:53:46.831Z,22.80
2022-11-07T11:56:37.937Z,22.80
2022-11-07T11:59:35.167Z,23.00
2022-11-07T12:02:22.960Z,22.80
2022-11-07T12:04:50.275Z,22.70
2022-11-07T12:07:32.311Z,22.40
2022-11-07T12:10:40.094Z,22.40
2022-11-07T12:13:30.480Z,22.20
2022-11-07T12:16:27.899Z,22.50
2022-11-07T12:19:06.400Z,22.70
2022-11-07T12:21:42.507Z,22.80
2022-11-07T12:24:36.465Z,22.40
2022-11-07T12:27:42.470Z,22.40
2022-11-07T12:30:18.616Z,21.80
2022-11-07T12:32:58.283Z,21.50
2022-11-07T12:35:34.765Z,21.60
2022-11-07T12:38:34.277Z,21.80
2022-11-07T12:41:25.241Z,21.40
2022-11-07T12:44:24.341Z,21.60
2022-11-07T12:46:54.737Z,21.70
2022-11-07T12:49:43.261Z,21.50
2022-11-07T12:52:45.438Z,21.60
2022-11-07T12:55:37.701Z,21.20
2022-11-07T12:58:12.316Z,21.30
2022-11-07T13:00:40.366Z,21.90
2022-11-07T13:03:42.436Z,21.90
2022-11-07T13:06:15.406Z,21.80
2022-11-07T13:09:09.137Z,21.60
2022-11-07T13:11:54.338Z,21.80
2022-11-07T13:14:24.870Z,21.70
2022-11-07T13:16:54.077Z,22.00
2022-11-07T13:19:32.725Z,21.90
2022-11-07T13:22:04.822Z,21.60
2022-11-07T13:24:33.968Z,21.60
2022-11-07T13:27:01.417Z,21.60
2022-11-07T13:29:35.757Z,22.30
2022-11-07T13:32:13.987Z,20.50
2022-11-07T13:34:59.200Z,21.80
2022-11-07T13:37:36.746Z,21.70
2022-11-07T13:40:16.106Z,21.70
2022-11-07T13:42:44.754Z,22.20
2022-11-07T13:45:27.700Z,21.10
2022-11-07T13:48:00.992Z,20.70
2022-11-07T13:50:41.406Z,20.60
2022-11-07T13:53:51.359Z,21.50
2022-11-07T13:56:41.810Z,21.60
2022-11-07T13:59:44.400Z,21.50
2022-11-07T14:02:24.693Z,20.80
2022-11-07T14:05:17.837Z,20.90
2022-11-07T14:08:10.313Z,21.00
2022-11-07T14:10:47.846Z,21.20
2022-11-07T14:13:40.680Z,20.60
2022-11-07T14:16:19.862Z,20.50
2022-11-07T14:18:48.780Z,20.60
2022-11-07T14:21:25.963Z,20.70
2022-11-07T14:23:53.661Z,20.40
2022-11-07T14:26:25.902Z,19.90
2022-11-07T14:28:54.033Z,19.60
2022-11-07T14:31:30.475Z,19.40
2022-11-07T14:34:20.790Z,19.30
2022-11-07T14:36:54.339Z,19.20
2022-11-07T14:39:23.312Z,19.10
2022-11-07T14:41:51.605Z,19.00
2022-11-07T14:44:53.236Z,19.00
2022-11-07T14:47:35.227Z,18.90
2022-11-07T14:50:04.237Z,18.70
2022-11-07T14:52:33.948Z,18.70
2022-11-07T14:55:28.780Z,18.70
2022-11-07T14:57:59.692Z,18.60
2022-11-07T15:00:27.676Z,18.50
2022-11-07T15:02:57.235Z,18.40
2022-11-07T15:05:38.035Z,18.20
2022-11-07T15:08:05.660Z,18.20
2022-11-07T15:10:36.694Z,18.20
2022-11-07T15:13:06.507Z,18.20
2022-11-07T15:15:36.303Z,18.10
2022-11-07T15:18:06.431Z,18.10
2022-11-07T15:20:36.217Z,18.00
2022-11-07T15:23:13.647Z,18.00
2022-11-07T15:26:06.933Z,17.90
2022-11-07T15:28:51.961Z,18.00
2022-11-07T15:31:30.226Z,17.90
2022-11-07T15:33:59.304Z,17.80
2022-11-07T15:36:26.663Z,17.80
2022-11-07T15:38:55.931Z,17.80
2022-11-07T15:41:23.458Z,17.70
2022-11-07T15:43:50.810Z,17.80
2022-11-07T15:46:39.070Z,17.60
2022-11-07T15:49:07.347Z,17.70
2022-11-07T15:51:34.834Z,17.60
2022-11-07T15:54:02.244Z,17.50
2022-11-07T15:56:29.653Z,17.50
2022-11-07T15:58:57.082Z,17.50
2022-11-07T16:01:24.720Z,17.50
2022-11-07T16:03:52.195Z,17.30
2022-11-07T16:06:28.813Z,17.20
2022-11-07T16:08:56.499Z,17.00
2022-11-07T16:11:24.371Z,17.00
2022-11-07T16:13:59.285Z,17.20
2022-11-07T16:16:34.131Z,17.00
2022-11-07T16:19:01.590Z,17.00
2022-11-07T16:21:28.910Z,17.00
2022-11-07T16:23:56.252Z,17.00
2022-11-07T16:26:29.008Z,16.80
2022-11-07T16:28:56.554Z,16.60
2022-11-07T16:31:24.000Z,16.50
2022-11-07T16:33:53.410Z,16.30
2022-11-07T16:36:24.300Z,16.20
2022-11-07T16:38:52.698Z,16.30
2022-11-07T17:11:17.093Z,15.90
2022-11-07T17:13:45.069Z,15.80
2022-11-07T17:16:22.696Z,15.60
2022-11-07T17:18:51.062Z,15.50
2022-11-07T17:21:33.391Z,15.50
2022-11-07T17:24:01.427Z,15.50
2022-11-07T17:26:38.819Z,15.40
2022-11-07T17:29:07.950Z,15.40
2022-11-07T17:31:35.252Z,15.20
2022-11-07T17:34:02.778Z,15.20
2022-11-07T17:36:40.450Z,15.20
2022-11-07T17:39:11.750Z,15.20
2022-11-07T17:41:40.856Z,15.00
2022-11-07T17:44:08.939Z,15.10
2022-11-07T17:46:40.913Z,15.10
2022-11-07T17:49:10.448Z,15.10
2022-11-07T17:51:37.850Z,15.10
2022-11-07T17:54:05.557Z,14.90
2022-11-07T17:56:34.080Z,14.90
2022-11-07T17:59:07.421Z,15.30
2022-11-07T18:01:37.736Z,15.00
2022-11-07T18:04:06.891Z,14.70
2022-11-07T18:06:36.935Z,14.70
2022-11-07T18:09:06.208Z,14.60
2022-11-07T18:11:35.093Z,14.60
2022-11-07T18:14:02.490Z,14.50
2022-11-07T18:16:36.069Z,14.30
2022-11-07T18:19:04.340Z,14.40
2022-11-07T18:21:32.040Z,14.20
2022-11-07T18:23:59.493Z,14.20
2022-11-07T18:26:30.854Z,14.10
2022-11-07T18:29:03.110Z,14.20
2022-11-07T18:31:30.530Z,14.20
2022-11-07T18:34:00.660Z,14.10
2022-11-07T18:36:28.370Z,14.20
2022-11-07T18:38:55.884Z,14.10
2022-11-07T18:41:24.467Z,14.20
2022-11-07T18:43:54.139Z,14.30
2022-11-07T18:46:22.088Z,14.20
2022-11-07T18:48:50.911Z,14.20
2022-11-07T18:51:21.511Z,14.00
2022-11-07T18:53:50.146Z,14.00
2022-11-07T18:56:17.722Z,14.10
2022-11-07T18:58:45.253Z,14.00
2022-11-07T19:01:14.664Z,14.00
2022-11-07T19:03:42.469Z,14.00
2022-11-07T19:06:15.635Z,13.90
2022-11-07T19:08:44.885Z,13.80
2022-11-07T19:11:14.340Z,13.70
2022-11-07T19:13:44.540Z,13.70
2022-11-07T19:16:15.581Z,13.80
2022-11-07T19:18:49.441Z,13.70
2022-11-07T19:21:20.369Z,13.70
2022-11-07T19:23:48.844Z,13.60
2022-11-07T19:26:18.953Z,13.40
2022-11-07T19:28:46.598Z,13.40
2022-11-07T19:31:14.336Z,13.50
2022-11-07T19:33:43.030Z,13.50
2022-11-07T19:36:20.076Z,13.30
2022-11-07T19:38:48.545Z,13.30
2022-11-07T19:41:17.332Z,13.20
2022-11-07T19:43:48.457Z,13.20
2022-11-07T19:46:21.752Z,13.30
2022-11-07T19:48:50.343Z,13.30
2022-11-07T19:51:22.611Z,13.40
2022-11-07T19:53:55.611Z,13.50
2022-11-07T19:56:24.329Z,13.20
2022-11-07T19:58:52.019Z,13.20
2022-11-07T20:01:25.358Z,13.30
2022-11-07T20:03:54.212Z,13.20
2022-11-07T20:06:30.332Z,13.30
2022-11-07T20:08:57.944Z,13.10
2022-11-07T20:11:26.865Z,13.10
2022-11-07T20:13:58.592Z,13.00
2022-11-07T20:16:29.253Z,13.10
2022-11-07T20:18:56.548Z,13.20
2022-11-07T20:21:24.542Z,13.30
2022-11-07T20:23:57.053Z,13.20
2022-11-07T20:26:26.365Z,13.10
2022-11-07T20:28:53.835Z,13.10
2022-11-07T20:31:30.026Z,13.10
2022-11-07T20:34:00.736Z,12.90
2022-11-07T20:36:28.717Z,12.80
2022-11-07T20:38:56.441Z,12.80
2022-11-07T20:41:24.990Z,12.80
2022-11-07T20:44:06.261Z,12.90
2022-11-07T20:46:36.507Z,13.00
2022-11-07T20:49:07.008Z,12.80
2022-11-07T20:51:34.608Z,12.70
2022-11-07T20:54:01.958Z,12.70
2022-11-07T20:56:29.232Z,12.70
2022-11-07T20:58:58.864Z,12.60
2022-11-07T21:01:36.245Z,12.60
2022-11-07T21:04:15.966Z,12.60
2022-11-07T21:09:12.423Z,12.60
2022-11-07T21:11:41.838Z,12.70
2022-11-07T21:14:10.267Z,12.70
2022-11-07T21:16:37.654Z,12.60
2022-11-07T21:19:05.449Z,12.60
2022-11-07T21:21:33.784Z,12.50
2022-11-07T21:24:01.312Z,12.50
2022-11-07T21:26:38.826Z,12.30
2022-11-07T21:29:08.469Z,12.30
2022-11-07T21:31:37.528Z,12.40
2022-11-07T21:34:06.429Z,12.30
2022-11-07T21:36:33.804Z,12.20
2022-11-07T21:39:02.221Z,12.40
2022-11-07T21:41:30.655Z,12.40
2022-11-07T21:43:58.484Z,12.40
2022-11-07T21:46:28.941Z,12.40
2022-11-07T21:48:57.045Z,12.40
2022-11-07T21:51:33.152Z,12.30
2022-11-07T21:54:01.200Z,12.20
2022-11-07T21:56:33.878Z,12.20
2022-11-07T21:59:06.076Z,12.10
2022-11-07T22:01:35.324Z,12.20
2022-11-07T22:04:07.519Z,12.40
2022-11-07T22:06:45.883Z,12.30
2022-11-07T22:09:15.930Z,12.10
2022-11-07T22:11:43.653Z,12.20
2022-11-07T22:14:14.708Z,12.00
2022-11-07T22:16:42.555Z,12.10
2022-11-07T22:19:12.665Z,12.10
2022-11-07T22:21:41.072Z,12.10
2022-11-07T22:24:09.139Z,12.10
2022-11-07T22:26:36.548Z,11.90
2022-11-07T22:29:03.913Z,12.10
2022-11-07T22:31:32.130Z,12.00
2022-11-07T22:34:00.594Z,11.90
2022-11-07T22:36:28.765Z,11.90
2022-11-07T22:38:57.668Z,12.00
2022-11-07T22:41:27.042Z,11.90
2022-11-07T22:43:54.467Z,11.80
2022-11-07T22:46:24.385Z,11.80
2022-11-07T22:48:52.721Z,11.60
2022-11-07T22:51:26.188Z,11.80
2022-11-07T22:54:02.869Z,11.70
2022-11-07T22:56:30.805Z,12.00
2022-11-07T22:58:58.410Z,12.00
2022-11-07T23:08:50.353Z,11.90
2022-11-07T23:11:47.191Z,11.70
2022-11-07T23:14:17.871Z,11.70
2022-11-07T23:19:20.271Z,11.60
2022-11-07T23:21:48.953Z,11.60
2022-11-07T23:24:16.610Z,11.70
2022-11-07T23:26:44.170Z,11.80
2022-11-07T23:29:18.535Z,11.70
2022-11-07T23:31:48.201Z,11.50
2022-11-07T23:34:16.405Z,11.70
2022-11-07T23:36:44.814Z,11.60
2022-11-07T23:39:15.551Z,11.70
2022-11-07T23:41:43.445Z,11.70
2022-11-07T23:44:11.568Z,11.70
2022-11-07T23:47:11.559Z,11.50
2022-11-07T23:49:57.605Z,11.40
2022-11-07T23:52:24.889Z,11.50
2022-11-07T23:55:10.638Z,11.70
2022-11-07T23:57:58.003Z,11.80
